KBAM

Battle Mountain Airport

Battle Mountain, Nevada, USA
METAR KBAM 240755Z AUTO 14003KT 10SM OVC110 14/10 A3003 RMK AO1
Observed Flight Rules
May-24 @ 07:55 UTC (11 minutes ago) Visual Flight Rules
Wind Visibility Clouds
140° at 3 knots 10 miles
  • Overcast at 11,000' AGL
Temperatures Readings
Current 14°C / 57°F
Dewpoint 10°C / 50°F
Humidity 77%
Altimeter 30.03" Hg
Pressure 1017 hPa
METAR KBAM 240755Z AUTO 14003KT 10SM OVC110 14/10 A3003 RMK AO1
Observed Flight Rules
May-24 @ 07:55 UTC
(11 minutes ago)
VFR
Wind Visibility
140° at 3 knots 10 miles
Clouds
  • Overcast at 11,000' AGL
Temperature Dewpoint
14°C / 57°F 10°C / 50°F
Humidity Altimeter Pressure
77% 30.03" Hg 1017 hPa